Terminal Aerodrome Forecast
Issued by NWS

Home | Current Version | Previous Version | Text Only | Print | Product List | Glossary On
Versions: 1 2 3 4 5 6 7 8 9 10 11 12 13 14 15 16
000
FTUS45 KFGZ 302321
TAFPRC
TAF
KPRC 302321Z 0100/0124 VRB05KT P6SM BKN070 BKN090
      TEMPO 0100/0102 VRB10G20KT -SHRA BKN060
     FM010300 21006KT P6SM SCT080
     FM011700 21010G16KT P6SM SCT090=

USA.gov is the U.S. government's official web portal to all federal, state and local government web resources and services.